sensor_id;sensor_type;location;lat;lon;timestamp;P1;durP1;ratioP1;P2;durP2;ratioP2
50569;SDS011;36525;49.398;7.614;2022-07-05T00:00:23;1.60;;;0.40;;
50569;SDS011;36525;49.398;7.614;2022-07-05T00:02:50;3.65;;;0.57;;
50569;SDS011;36525;49.398;7.614;2022-07-05T00:05:17;0.80;;;0.40;;
50569;SDS011;36525;49.398;7.614;2022-07-05T00:07:44;2.30;;;0.50;;
50569;SDS011;36525;49.398;7.614;2022-07-05T00:10:11;4.47;;;0.70;;
50569;SDS011;36525;49.398;7.614;2022-07-05T00:12:38;2.35;;;0.60;;
50569;SDS011;36525;49.398;7.614;2022-07-05T00:15:05;1.83;;;0.50;;
50569;SDS011;36525;49.398;7.614;2022-07-05T00:17:33;1.65;;;0.50;;
50569;SDS011;36525;49.398;7.614;2022-07-05T00:20:00;3.05;;;0.70;;
50569;SDS011;36525;49.398;7.614;2022-07-05T00:22:29;2.47;;;0.60;;
50569;SDS011;36525;49.398;7.614;2022-07-05T00:24:56;4.93;;;0.55;;
50569;SDS011;36525;49.398;7.614;2022-07-05T00:27:23;3.83;;;0.55;;
50569;SDS011;36525;49.398;7.614;2022-07-05T00:29:50;1.38;;;0.47;;
50569;SDS011;36525;49.398;7.614;2022-07-05T00:32:17;3.40;;;0.60;;
50569;SDS011;36525;49.398;7.614;2022-07-05T00:34:44;1.75;;;0.57;;
50569;SDS011;36525;49.398;7.614;2022-07-05T00:37:12;1.17;;;0.50;;
50569;SDS011;36525;49.398;7.614;2022-07-05T00:39:39;1.48;;;0.60;;
50569;SDS011;36525;49.398;7.614;2022-07-05T00:42:07;5.07;;;0.80;;
50569;SDS011;36525;49.398;7.614;2022-07-05T00:44:35;1.10;;;0.40;;
50569;SDS011;36525;49.398;7.614;2022-07-05T00:47:06;2.42;;;0.55;;
50569;SDS011;36525;49.398;7.614;2022-07-05T00:49:35;3.45;;;0.50;;
50569;SDS011;36525;49.398;7.614;2022-07-05T00:52:04;5.75;;;0.63;;
50569;SDS011;36525;49.398;7.614;2022-07-05T00:54:47;3.38;;;0.60;;
50569;SDS011;36525;49.398;7.614;2022-07-05T00:57:15;3.25;;;0.70;;
50569;SDS011;36525;49.398;7.614;2022-07-05T00:59:46;5.03;;;0.70;;
50569;SDS011;36525;49.398;7.614;2022-07-05T01:02:13;4.68;;;0.82;;
50569;SDS011;36525;49.398;7.614;2022-07-05T01:04:45;2.90;;;0.60;;
50569;SDS011;36525;49.398;7.614;2022-07-05T01:07:14;3.08;;;0.60;;
50569;SDS011;36525;49.398;7.614;2022-07-05T01:09:44;3.08;;;0.60;;
50569;SDS011;36525;49.398;7.614;2022-07-05T01:12:11;4.18;;;0.70;;
50569;SDS011;36525;49.398;7.614;2022-07-05T01:14:37;2.80;;;0.70;;
50569;SDS011;36525;49.398;7.614;2022-07-05T01:17:08;2.20;;;0.70;;
50569;SDS011;36525;49.398;7.614;2022-07-05T01:19:36;5.18;;;0.60;;
50569;SDS011;36525;49.398;7.614;2022-07-05T01:22:04;3.05;;;0.55;;
50569;SDS011;36525;49.398;7.614;2022-07-05T01:24:40;2.97;;;0.70;;
50569;SDS011;36525;49.398;7.614;2022-07-05T01:27:09;4.53;;;0.63;;
50569;SDS011;36525;49.398;7.614;2022-07-05T01:29:36;2.30;;;0.60;;
50569;SDS011;36525;49.398;7.614;2022-07-05T01:32:03;2.40;;;0.50;;
50569;SDS011;36525;49.398;7.614;2022-07-05T01:34:30;4.10;;;0.60;;
50569;SDS011;36525;49.398;7.614;2022-07-05T01:36:57;2.60;;;0.50;;
50569;SDS011;36525;49.398;7.614;2022-07-05T01:39:24;2.90;;;0.50;;
50569;SDS011;36525;49.398;7.614;2022-07-05T01:41:51;2.53;;;0.50;;
50569;SDS011;36525;49.398;7.614;2022-07-05T01:44:18;1.50;;;0.60;;
50569;SDS011;36525;49.398;7.614;2022-07-05T01:46:45;2.78;;;0.80;;
50569;SDS011;36525;49.398;7.614;2022-07-05T01:49:13;1.77;;;0.52;;
50569;SDS011;36525;49.398;7.614;2022-07-05T01:51:57;3.05;;;0.40;;
50569;SDS011;36525;49.398;7.614;2022-07-05T01:54:29;2.83;;;0.50;;
50569;SDS011;36525;49.398;7.614;2022-07-05T01:56:57;0.90;;;0.52;;
50569;SDS011;36525;49.398;7.614;2022-07-05T01:59:25;3.50;;;0.68;;
50569;SDS011;36525;49.398;7.614;2022-07-05T02:01:54;2.80;;;0.50;;
50569;SDS011;36525;49.398;7.614;2022-07-05T02:04:21;2.38;;;0.55;;
50569;SDS011;36525;49.398;7.614;2022-07-05T02:06:48;3.45;;;0.80;;
50569;SDS011;36525;49.398;7.614;2022-07-05T02:09:15;1.30;;;0.60;;
50569;SDS011;36525;49.398;7.614;2022-07-05T02:11:42;3.63;;;0.60;;
50569;SDS011;36525;49.398;7.614;2022-07-05T02:14:09;2.58;;;0.63;;
50569;SDS011;36525;49.398;7.614;2022-07-05T02:16:37;2.00;;;0.60;;
50569;SDS011;36525;49.398;7.614;2022-07-05T02:19:05;2.78;;;0.70;;
50569;SDS011;36525;49.398;7.614;2022-07-05T02:21:32;2.55;;;0.70;;
50569;SDS011;36525;49.398;7.614;2022-07-05T02:23:59;3.50;;;0.60;;
50569;SDS011;36525;49.398;7.614;2022-07-05T02:26:26;2.25;;;0.60;;
50569;SDS011;36525;49.398;7.614;2022-07-05T02:28:53;1.60;;;0.70;;
50569;SDS011;36525;49.398;7.614;2022-07-05T02:31:21;3.85;;;0.70;;
50569;SDS011;36525;49.398;7.614;2022-07-05T02:33:48;1.75;;;0.70;;
50569;SDS011;36525;49.398;7.614;2022-07-05T02:36:15;2.05;;;0.63;;
50569;SDS011;36525;49.398;7.614;2022-07-05T02:38:42;5.10;;;0.70;;
50569;SDS011;36525;49.398;7.614;2022-07-05T02:41:10;4.53;;;0.73;;
50569;SDS011;36525;49.398;7.614;2022-07-05T02:43:38;2.63;;;0.70;;
50569;SDS011;36525;49.398;7.614;2022-07-05T02:46:07;1.00;;;0.60;;
50569;SDS011;36525;49.398;7.614;2022-07-05T02:48:35;3.03;;;0.60;;
50569;SDS011;36525;49.398;7.614;2022-07-05T02:51:04;4.63;;;0.70;;
50569;SDS011;36525;49.398;7.614;2022-07-05T02:53:32;1.55;;;0.70;;
50569;SDS011;36525;49.398;7.614;2022-07-05T02:56:00;1.90;;;0.73;;
50569;SDS011;36525;49.398;7.614;2022-07-05T02:58:28;2.42;;;0.70;;
50569;SDS011;36525;49.398;7.614;2022-07-05T03:00:55;2.97;;;0.70;;
50569;SDS011;36525;49.398;7.614;2022-07-05T03:03:23;4.65;;;0.90;;
50569;SDS011;36525;49.398;7.614;2022-07-05T03:05:50;5.05;;;1.00;;
50569;SDS011;36525;49.398;7.614;2022-07-05T03:08:18;1.40;;;0.60;;
50569;SDS011;36525;49.398;7.614;2022-07-05T03:10:45;2.13;;;0.70;;
50569;SDS011;36525;49.398;7.614;2022-07-05T03:13:13;1.33;;;0.70;;
50569;SDS011;36525;49.398;7.614;2022-07-05T03:15:40;1.10;;;0.60;;
50569;SDS011;36525;49.398;7.614;2022-07-05T03:18:09;1.88;;;0.60;;
50569;SDS011;36525;49.398;7.614;2022-07-05T03:20:36;2.45;;;0.65;;
50569;SDS011;36525;49.398;7.614;2022-07-05T03:23:04;1.63;;;0.60;;
50569;SDS011;36525;49.398;7.614;2022-07-05T03:25:31;4.07;;;0.60;;
50569;SDS011;36525;49.398;7.614;2022-07-05T03:27:58;1.67;;;0.60;;
50569;SDS011;36525;49.398;7.614;2022-07-05T03:30:26;1.85;;;0.60;;
50569;SDS011;36525;49.398;7.614;2022-07-05T03:32:53;1.52;;;0.70;;
50569;SDS011;36525;49.398;7.614;2022-07-05T03:35:21;5.75;;;1.10;;
50569;SDS011;36525;49.398;7.614;2022-07-05T03:37:48;3.63;;;0.80;;
50569;SDS011;36525;49.398;7.614;2022-07-05T03:40:15;2.30;;;0.52;;
50569;SDS011;36525;49.398;7.614;2022-07-05T03:42:43;1.95;;;0.52;;
50569;SDS011;36525;49.398;7.614;2022-07-05T03:45:10;4.00;;;0.70;;
50569;SDS011;36525;49.398;7.614;2022-07-05T03:47:38;1.92;;;0.70;;
50569;SDS011;36525;49.398;7.614;2022-07-05T03:50:05;2.00;;;0.40;;
50569;SDS011;36525;49.398;7.614;2022-07-05T03:52:33;4.40;;;0.75;;
50569;SDS011;36525;49.398;7.614;2022-07-05T03:55:00;2.75;;;0.77;;
50569;SDS011;36525;49.398;7.614;2022-07-05T03:57:27;2.97;;;0.77;;
50569;SDS011;36525;49.398;7.614;2022-07-05T03:59:54;4.05;;;0.75;;
50569;SDS011;36525;49.398;7.614;2022-07-05T04:02:21;4.20;;;0.70;;
50569;SDS011;36525;49.398;7.614;2022-07-05T04:04:48;3.75;;;0.80;;
50569;SDS011;36525;49.398;7.614;2022-07-05T04:07:15;2.83;;;0.70;;
50569;SDS011;36525;49.398;7.614;2022-07-05T04:09:42;1.95;;;0.73;;
50569;SDS011;36525;49.398;7.614;2022-07-05T04:12:10;1.65;;;0.57;;
50569;SDS011;36525;49.398;7.614;2022-07-05T04:14:37;2.10;;;0.70;;
50569;SDS011;36525;49.398;7.614;2022-07-05T04:17:04;4.60;;;0.80;;
50569;SDS011;36525;49.398;7.614;2022-07-05T04:19:31;3.35;;;0.70;;
50569;SDS011;36525;49.398;7.614;2022-07-05T04:21:58;3.45;;;0.70;;
50569;SDS011;36525;49.398;7.614;2022-07-05T04:24:25;2.10;;;0.80;;
50569;SDS011;36525;49.398;7.614;2022-07-05T04:26:52;1.92;;;0.80;;
50569;SDS011;36525;49.398;7.614;2022-07-05T04:29:19;1.52;;;0.60;;
50569;SDS011;36525;49.398;7.614;2022-07-05T04:31:46;2.13;;;0.60;;
50569;SDS011;36525;49.398;7.614;2022-07-05T04:34:13;1.98;;;0.73;;
50569;SDS011;36525;49.398;7.614;2022-07-05T04:36:40;1.48;;;0.65;;
50569;SDS011;36525;49.398;7.614;2022-07-05T04:39:07;5.78;;;1.23;;
50569;SDS011;36525;49.398;7.614;2022-07-05T04:41:34;3.67;;;0.77;;
50569;SDS011;36525;49.398;7.614;2022-07-05T04:44:02;2.90;;;0.70;;
50569;SDS011;36525;49.398;7.614;2022-07-05T04:46:29;3.83;;;0.70;;
50569;SDS011;36525;49.398;7.614;2022-07-05T04:48:56;6.78;;;0.70;;
50569;SDS011;36525;49.398;7.614;2022-07-05T04:51:23;2.15;;;0.70;;
50569;SDS011;36525;49.398;7.614;2022-07-05T04:53:50;2.60;;;0.80;;
50569;SDS011;36525;49.398;7.614;2022-07-05T04:56:17;4.43;;;0.68;;
50569;SDS011;36525;49.398;7.614;2022-07-05T04:58:44;4.00;;;0.98;;
50569;SDS011;36525;49.398;7.614;2022-07-05T05:01:11;3.15;;;0.68;;
50569;SDS011;36525;49.398;7.614;2022-07-05T05:03:38;1.50;;;0.63;;
50569;SDS011;36525;49.398;7.614;2022-07-05T05:06:05;1.67;;;0.68;;
50569;SDS011;36525;49.398;7.614;2022-07-05T05:08:32;5.90;;;1.00;;
50569;SDS011;36525;49.398;7.614;2022-07-05T05:10:59;1.55;;;0.70;;
50569;SDS011;36525;49.398;7.614;2022-07-05T05:13:26;1.92;;;0.50;;
50569;SDS011;36525;49.398;7.614;2022-07-05T05:15:53;3.40;;;0.70;;
50569;SDS011;36525;49.398;7.614;2022-07-05T05:18:20;2.53;;;0.80;;
50569;SDS011;36525;49.398;7.614;2022-07-05T05:20:51;2.42;;;0.70;;
50569;SDS011;36525;49.398;7.614;2022-07-05T05:23:20;2.15;;;0.80;;
50569;SDS011;36525;49.398;7.614;2022-07-05T05:25:48;4.55;;;0.80;;
50569;SDS011;36525;49.398;7.614;2022-07-05T05:28:16;8.90;;;0.80;;
50569;SDS011;36525;49.398;7.614;2022-07-05T05:30:43;4.88;;;0.90;;
50569;SDS011;36525;49.398;7.614;2022-07-05T05:33:10;5.05;;;1.00;;
50569;SDS011;36525;49.398;7.614;2022-07-05T05:35:37;1.58;;;0.60;;
50569;SDS011;36525;49.398;7.614;2022-07-05T05:38:04;1.52;;;0.80;;
50569;SDS011;36525;49.398;7.614;2022-07-05T05:40:31;1.35;;;0.70;;
50569;SDS011;36525;49.398;7.614;2022-07-05T05:43:03;3.00;;;0.70;;
50569;SDS011;36525;49.398;7.614;2022-07-05T05:45:31;3.55;;;0.77;;
50569;SDS011;36525;49.398;7.614;2022-07-05T05:47:58;3.70;;;0.82;;
50569;SDS011;36525;49.398;7.614;2022-07-05T05:50:32;3.40;;;0.70;;
50569;SDS011;36525;49.398;7.614;2022-07-05T05:53:02;2.70;;;0.82;;
50569;SDS011;36525;49.398;7.614;2022-07-05T05:55:30;1.55;;;0.52;;
50569;SDS011;36525;49.398;7.614;2022-07-05T05:58:17;5.47;;;0.80;;
50569;SDS011;36525;49.398;7.614;2022-07-05T06:00:50;2.58;;;0.60;;
50569;SDS011;36525;49.398;7.614;2022-07-05T06:03:19;3.05;;;0.70;;
50569;SDS011;36525;49.398;7.614;2022-07-05T06:05:47;5.72;;;0.82;;
50569;SDS011;36525;49.398;7.614;2022-07-05T06:08:15;2.38;;;0.80;;
50569;SDS011;36525;49.398;7.614;2022-07-05T06:10:42;2.30;;;0.80;;
50569;SDS011;36525;49.398;7.614;2022-07-05T06:13:10;2.55;;;1.10;;
50569;SDS011;36525;49.398;7.614;2022-07-05T06:15:39;3.45;;;1.42;;
50569;SDS011;36525;49.398;7.614;2022-07-05T06:18:08;2.80;;;1.00;;
50569;SDS011;36525;49.398;7.614;2022-07-05T06:20:36;5.60;;;1.10;;
50569;SDS011;36525;49.398;7.614;2022-07-05T06:23:05;2.97;;;1.00;;
50569;SDS011;36525;49.398;7.614;2022-07-05T06:25:33;6.03;;;1.13;;
50569;SDS011;36525;49.398;7.614;2022-07-05T06:28:02;3.17;;;0.90;;
50569;SDS011;36525;49.398;7.614;2022-07-05T06:30:33;3.22;;;1.20;;
50569;SDS011;36525;49.398;7.614;2022-07-05T06:33:03;3.27;;;1.00;;
50569;SDS011;36525;49.398;7.614;2022-07-05T06:35:30;4.13;;;1.02;;
50569;SDS011;36525;49.398;7.614;2022-07-05T06:37:59;2.17;;;0.85;;
50569;SDS011;36525;49.398;7.614;2022-07-05T06:40:36;4.55;;;1.23;;
50569;SDS011;36525;49.398;7.614;2022-07-05T06:43:09;2.60;;;0.88;;
50569;SDS011;36525;49.398;7.614;2022-07-05T06:45:39;5.93;;;0.82;;
50569;SDS011;36525;49.398;7.614;2022-07-05T06:48:07;2.30;;;0.90;;
50569;SDS011;36525;49.398;7.614;2022-07-05T06:50:37;4.15;;;1.05;;
50569;SDS011;36525;49.398;7.614;2022-07-05T06:53:06;3.30;;;0.80;;
50569;SDS011;36525;49.398;7.614;2022-07-05T06:55:34;4.97;;;1.08;;
50569;SDS011;36525;49.398;7.614;2022-07-05T06:58:05;2.42;;;0.80;;
50569;SDS011;36525;49.398;7.614;2022-07-05T07:00:41;3.88;;;0.90;;
50569;SDS011;36525;49.398;7.614;2022-07-05T07:03:29;2.47;;;0.88;;
50569;SDS011;36525;49.398;7.614;2022-07-05T07:06:16;2.72;;;0.75;;
50569;SDS011;36525;49.398;7.614;2022-07-05T07:08:44;3.58;;;0.70;;
50569;SDS011;36525;49.398;7.614;2022-07-05T07:11:32;1.92;;;0.60;;
50569;SDS011;36525;49.398;7.614;2022-07-05T07:13:59;2.95;;;0.80;;
50569;SDS011;36525;49.398;7.614;2022-07-05T07:16:27;3.25;;;0.70;;
50569;SDS011;36525;49.398;7.614;2022-07-05T07:18:54;3.63;;;0.85;;
50569;SDS011;36525;49.398;7.614;2022-07-05T07:21:40;3.00;;;0.88;;
50569;SDS011;36525;49.398;7.614;2022-07-05T07:24:07;4.80;;;0.88;;
50569;SDS011;36525;49.398;7.614;2022-07-05T07:26:35;3.30;;;0.73;;
50569;SDS011;36525;49.398;7.614;2022-07-05T07:29:20;3.35;;;0.88;;
50569;SDS011;36525;49.398;7.614;2022-07-05T07:31:48;5.00;;;0.80;;
50569;SDS011;36525;49.398;7.614;2022-07-05T07:34:15;3.47;;;0.70;;
50569;SDS011;36525;49.398;7.614;2022-07-05T07:36:42;3.35;;;0.60;;
50569;SDS011;36525;49.398;7.614;2022-07-05T07:39:09;3.60;;;0.70;;
50569;SDS011;36525;49.398;7.614;2022-07-05T07:41:36;1.95;;;0.60;;
50569;SDS011;36525;49.398;7.614;2022-07-05T07:44:03;4.00;;;0.70;;
50569;SDS011;36525;49.398;7.614;2022-07-05T07:46:30;3.40;;;0.57;;
50569;SDS011;36525;49.398;7.614;2022-07-05T07:48:57;2.40;;;0.55;;
50569;SDS011;36525;49.398;7.614;2022-07-05T07:51:24;2.58;;;0.60;;
50569;SDS011;36525;49.398;7.614;2022-07-05T07:53:52;4.60;;;0.80;;
50569;SDS011;36525;49.398;7.614;2022-07-05T07:56:26;6.18;;;0.60;;
50569;SDS011;36525;49.398;7.614;2022-07-05T07:58:53;2.63;;;0.60;;
50569;SDS011;36525;49.398;7.614;2022-07-05T08:01:21;3.47;;;0.60;;
50569;SDS011;36525;49.398;7.614;2022-07-05T08:03:48;2.05;;;0.57;;
50569;SDS011;36525;49.398;7.614;2022-07-05T08:06:16;2.63;;;0.40;;
50569;SDS011;36525;49.398;7.614;2022-07-05T08:08:44;2.67;;;0.50;;
50569;SDS011;36525;49.398;7.614;2022-07-05T08:11:11;6.85;;;0.70;;
50569;SDS011;36525;49.398;7.614;2022-07-05T08:13:41;3.05;;;0.60;;
50569;SDS011;36525;49.398;7.614;2022-07-05T08:16:09;4.18;;;0.70;;
50569;SDS011;36525;49.398;7.614;2022-07-05T08:18:37;3.45;;;0.50;;
50569;SDS011;36525;49.398;7.614;2022-07-05T08:21:23;4.07;;;0.70;;
50569;SDS011;36525;49.398;7.614;2022-07-05T08:23:58;2.33;;;0.57;;
50569;SDS011;36525;49.398;7.614;2022-07-05T08:26:38;3.28;;;0.60;;
50569;SDS011;36525;49.398;7.614;2022-07-05T08:29:07;3.75;;;0.50;;
50569;SDS011;36525;49.398;7.614;2022-07-05T08:31:41;2.97;;;0.57;;
50569;SDS011;36525;49.398;7.614;2022-07-05T08:34:11;4.10;;;0.60;;
50569;SDS011;36525;49.398;7.614;2022-07-05T08:36:39;1.35;;;0.50;;
50569;SDS011;36525;49.398;7.614;2022-07-05T08:39:08;3.42;;;0.57;;
50569;SDS011;36525;49.398;7.614;2022-07-05T08:41:36;2.00;;;0.60;;
50569;SDS011;36525;49.398;7.614;2022-07-05T08:44:06;2.78;;;0.60;;
50569;SDS011;36525;49.398;7.614;2022-07-05T08:46:37;3.28;;;0.60;;
50569;SDS011;36525;49.398;7.614;2022-07-05T08:49:07;3.50;;;0.70;;
50569;SDS011;36525;49.398;7.614;2022-07-05T08:51:38;3.47;;;0.50;;
50569;SDS011;36525;49.398;7.614;2022-07-05T08:54:10;2.15;;;0.50;;
50569;SDS011;36525;49.398;7.614;2022-07-05T08:56:42;1.77;;;0.50;;
50569;SDS011;36525;49.398;7.614;2022-07-05T08:59:30;2.15;;;0.50;;
50569;SDS011;36525;49.398;7.614;2022-07-05T09:01:57;4.60;;;0.60;;
50569;SDS011;36525;49.398;7.614;2022-07-05T09:04:28;2.35;;;0.70;;
50569;SDS011;36525;49.398;7.614;2022-07-05T09:07:02;1.65;;;0.43;;
50569;SDS011;36525;49.398;7.614;2022-07-05T09:09:36;3.80;;;0.65;;
50569;SDS011;36525;49.398;7.614;2022-07-05T09:12:13;2.95;;;0.50;;
50569;SDS011;36525;49.398;7.614;2022-07-05T09:14:48;2.08;;;0.50;;
50569;SDS011;36525;49.398;7.614;2022-07-05T09:17:16;2.22;;;0.50;;
50569;SDS011;36525;49.398;7.614;2022-07-05T09:19:43;2.30;;;0.50;;
50569;SDS011;36525;49.398;7.614;2022-07-05T09:22:51;1.98;;;0.50;;
50569;SDS011;36525;49.398;7.614;2022-07-05T09:25:24;0.85;;;0.40;;
50569;SDS011;36525;49.398;7.614;2022-07-05T09:30:33;5.50;;;0.50;;
50569;SDS011;36525;49.398;7.614;2022-07-05T09:33:08;2.22;;;0.50;;
50569;SDS011;36525;49.398;7.614;2022-07-05T09:35:41;1.48;;;0.40;;
50569;SDS011;36525;49.398;7.614;2022-07-05T09:38:20;1.98;;;0.40;;
50569;SDS011;36525;49.398;7.614;2022-07-05T09:40:51;2.15;;;0.40;;
50569;SDS011;36525;49.398;7.614;2022-07-05T09:43:23;3.58;;;0.40;;
50569;SDS011;36525;49.398;7.614;2022-07-05T09:45:56;1.65;;;0.40;;
50569;SDS011;36525;49.398;7.614;2022-07-05T09:48:24;1.02;;;0.30;;
50569;SDS011;36525;49.398;7.614;2022-07-05T09:51:05;5.25;;;0.40;;
50569;SDS011;36525;49.398;7.614;2022-07-05T09:53:55;1.13;;;0.35;;
50569;SDS011;36525;49.398;7.614;2022-07-05T09:56:28;1.77;;;0.40;;
50569;SDS011;36525;49.398;7.614;2022-07-05T09:59:16;1.35;;;0.40;;
50569;SDS011;36525;49.398;7.614;2022-07-05T10:01:47;2.45;;;0.20;;
50569;SDS011;36525;49.398;7.614;2022-07-05T10:04:15;5.57;;;0.60;;
50569;SDS011;36525;49.398;7.614;2022-07-05T10:06:42;1.67;;;0.38;;
50569;SDS011;36525;49.398;7.614;2022-07-05T10:09:10;2.30;;;0.32;;
50569;SDS011;36525;49.398;7.614;2022-07-05T10:11:41;2.13;;;0.50;;
50569;SDS011;36525;49.398;7.614;2022-07-05T10:14:15;2.25;;;0.40;;
50569;SDS011;36525;49.398;7.614;2022-07-05T10:16:45;1.63;;;0.40;;
50569;SDS011;36525;49.398;7.614;2022-07-05T10:19:19;2.80;;;0.50;;
50569;SDS011;36525;49.398;7.614;2022-07-05T10:21:47;2.35;;;0.40;;
50569;SDS011;36525;49.398;7.614;2022-07-05T10:24:36;1.63;;;0.40;;
50569;SDS011;36525;49.398;7.614;2022-07-05T10:27:05;2.08;;;0.32;;
50569;SDS011;36525;49.398;7.614;2022-07-05T10:29:34;1.63;;;0.45;;
50569;SDS011;36525;49.398;7.614;2022-07-05T10:32:03;3.08;;;0.40;;
50569;SDS011;36525;49.398;7.614;2022-07-05T10:34:34;3.17;;;0.50;;
50569;SDS011;36525;49.398;7.614;2022-07-05T10:37:24;2.47;;;0.40;;
50569;SDS011;36525;49.398;7.614;2022-07-05T10:39:56;1.85;;;0.40;;
50569;SDS011;36525;49.398;7.614;2022-07-05T10:42:25;3.42;;;0.50;;
50569;SDS011;36525;49.398;7.614;2022-07-05T10:45:02;3.15;;;0.40;;
50569;SDS011;36525;49.398;7.614;2022-07-05T10:53:16;6.90;;;0.70;;
50569;SDS011;36525;49.398;7.614;2022-07-05T11:03:40;3.20;;;0.40;;
50569;SDS011;36525;49.398;7.614;2022-07-05T11:06:19;1.17;;;0.47;;
50569;SDS011;36525;49.398;7.614;2022-07-05T11:11:34;7.70;;;0.50;;
50569;SDS011;36525;49.398;7.614;2022-07-05T11:14:30;2.10;;;0.60;;
50569;SDS011;36525;49.398;7.614;2022-07-05T11:22:25;2.00;;;0.40;;
50569;SDS011;36525;49.398;7.614;2022-07-05T11:24:53;2.65;;;0.40;;
50569;SDS011;36525;49.398;7.614;2022-07-05T11:27:22;2.83;;;0.40;;
50569;SDS011;36525;49.398;7.614;2022-07-05T11:32:19;1.55;;;0.40;;
50569;SDS011;36525;49.398;7.614;2022-07-05T11:34:56;1.08;;;0.30;;
50569;SDS011;36525;49.398;7.614;2022-07-05T11:40:52;1.65;;;0.40;;
50569;SDS011;36525;49.398;7.614;2022-07-05T11:43:28;2.28;;;0.50;;
50569;SDS011;36525;49.398;7.614;2022-07-05T11:45:59;1.88;;;0.43;;
50569;SDS011;36525;49.398;7.614;2022-07-05T11:48:27;1.87;;;0.50;;
50569;SDS011;36525;49.398;7.614;2022-07-05T11:50:55;5.38;;;0.40;;
50569;SDS011;36525;49.398;7.614;2022-07-05T11:53:30;1.08;;;0.35;;
50569;SDS011;36525;49.398;7.614;2022-07-05T11:56:17;1.23;;;0.35;;
50569;SDS011;36525;49.398;7.614;2022-07-05T11:58:45;1.92;;;0.52;;
50569;SDS011;36525;49.398;7.614;2022-07-05T12:01:12;1.77;;;0.40;;
50569;SDS011;36525;49.398;7.614;2022-07-05T12:03:39;0.85;;;0.30;;
50569;SDS011;36525;49.398;7.614;2022-07-05T12:06:10;1.35;;;0.40;;
50569;SDS011;36525;49.398;7.614;2022-07-05T12:08:42;1.08;;;0.40;;
50569;SDS011;36525;49.398;7.614;2022-07-05T12:11:12;2.47;;;0.50;;
50569;SDS011;36525;49.398;7.614;2022-07-05T12:13:57;1.77;;;0.50;;
50569;SDS011;36525;49.398;7.614;2022-07-05T12:16:24;2.97;;;0.50;;
50569;SDS011;36525;49.398;7.614;2022-07-05T12:18:55;2.10;;;0.38;;
50569;SDS011;36525;49.398;7.614;2022-07-05T12:21:26;4.35;;;0.50;;
50569;SDS011;36525;49.398;7.614;2022-07-05T12:23:53;0.57;;;0.20;;
50569;SDS011;36525;49.398;7.614;2022-07-05T12:26:21;3.13;;;0.40;;
50569;SDS011;36525;49.398;7.614;2022-07-05T12:28:49;3.60;;;0.47;;
50569;SDS011;36525;49.398;7.614;2022-07-05T12:31:23;3.03;;;0.50;;
50569;SDS011;36525;49.398;7.614;2022-07-05T12:33:51;2.08;;;0.40;;
50569;SDS011;36525;49.398;7.614;2022-07-05T12:36:20;1.02;;;0.40;;
50569;SDS011;36525;49.398;7.614;2022-07-05T12:39:00;3.53;;;0.30;;
50569;SDS011;36525;49.398;7.614;2022-07-05T12:41:27;3.72;;;0.40;;
50569;SDS011;36525;49.398;7.614;2022-07-05T12:43:55;2.75;;;0.43;;
50569;SDS011;36525;49.398;7.614;2022-07-05T12:46:38;2.03;;;0.30;;
50569;SDS011;36525;49.398;7.614;2022-07-05T12:49:09;3.03;;;0.40;;
50569;SDS011;36525;49.398;7.614;2022-07-05T12:51:38;1.13;;;0.40;;
50569;SDS011;36525;49.398;7.614;2022-07-05T12:54:29;4.03;;;0.40;;
50569;SDS011;36525;49.398;7.614;2022-07-05T12:57:17;1.92;;;0.30;;
50569;SDS011;36525;49.398;7.614;2022-07-05T13:00:06;1.23;;;0.30;;
50569;SDS011;36525;49.398;7.614;2022-07-05T13:02:40;3.10;;;0.57;;
50569;SDS011;36525;49.398;7.614;2022-07-05T13:05:20;1.25;;;0.35;;
50569;SDS011;36525;49.398;7.614;2022-07-05T13:07:49;1.23;;;0.30;;
50569;SDS011;36525;49.398;7.614;2022-07-05T13:10:21;1.85;;;0.30;;
50569;SDS011;36525;49.398;7.614;2022-07-05T13:12:50;1.15;;;0.30;;
50569;SDS011;36525;49.398;7.614;2022-07-05T13:15:17;0.82;;;0.35;;
50569;SDS011;36525;49.398;7.614;2022-07-05T13:17:45;1.00;;;0.20;;
50569;SDS011;36525;49.398;7.614;2022-07-05T13:20:13;3.90;;;0.40;;
50569;SDS011;36525;49.398;7.614;2022-07-05T13:22:44;0.82;;;0.30;;
50569;SDS011;36525;49.398;7.614;2022-07-05T13:25:12;1.60;;;0.30;;
50569;SDS011;36525;49.398;7.614;2022-07-05T13:27:40;3.05;;;0.30;;
50569;SDS011;36525;49.398;7.614;2022-07-05T13:30:08;2.03;;;0.30;;
50569;SDS011;36525;49.398;7.614;2022-07-05T13:32:36;2.22;;;0.40;;
50569;SDS011;36525;49.398;7.614;2022-07-05T13:35:03;6.45;;;0.20;;
50569;SDS011;36525;49.398;7.614;2022-07-05T13:37:31;3.20;;;0.50;;
50569;SDS011;36525;49.398;7.614;2022-07-05T13:39:58;1.23;;;0.30;;
50569;SDS011;36525;49.398;7.614;2022-07-05T13:42:25;0.93;;;0.20;;
50569;SDS011;36525;49.398;7.614;2022-07-05T13:44:53;1.40;;;0.30;;
50569;SDS011;36525;49.398;7.614;2022-07-05T13:47:19;1.63;;;0.30;;
50569;SDS011;36525;49.398;7.614;2022-07-05T13:49:47;3.63;;;0.40;;
50569;SDS011;36525;49.398;7.614;2022-07-05T13:52:15;1.83;;;0.30;;
50569;SDS011;36525;49.398;7.614;2022-07-05T13:54:42;2.90;;;0.30;;
50569;SDS011;36525;49.398;7.614;2022-07-05T13:57:09;0.93;;;0.30;;
50569;SDS011;36525;49.398;7.614;2022-07-05T13:59:37;1.15;;;0.30;;
50569;SDS011;36525;49.398;7.614;2022-07-05T14:02:05;3.30;;;0.30;;
50569;SDS011;36525;49.398;7.614;2022-07-05T14:04:32;0.70;;;0.25;;
50569;SDS011;36525;49.398;7.614;2022-07-05T14:07:01;1.33;;;0.40;;
50569;SDS011;36525;49.398;7.614;2022-07-05T14:09:28;2.50;;;0.35;;
50569;SDS011;36525;49.398;7.614;2022-07-05T14:11:55;1.05;;;0.30;;
50569;SDS011;36525;49.398;7.614;2022-07-05T14:14:22;0.50;;;0.28;;
50569;SDS011;36525;49.398;7.614;2022-07-05T14:16:49;1.85;;;0.30;;
50569;SDS011;36525;49.398;7.614;2022-07-05T14:19:16;2.05;;;0.30;;
50569;SDS011;36525;49.398;7.614;2022-07-05T14:21:43;1.88;;;0.22;;
50569;SDS011;36525;49.398;7.614;2022-07-05T14:24:13;2.42;;;0.28;;
50569;SDS011;36525;49.398;7.614;2022-07-05T14:26:40;1.05;;;0.38;;
50569;SDS011;36525;49.398;7.614;2022-07-05T14:29:08;1.70;;;0.20;;
50569;SDS011;36525;49.398;7.614;2022-07-05T14:31:35;1.75;;;0.30;;
50569;SDS011;36525;49.398;7.614;2022-07-05T14:34:02;0.47;;;0.30;;
50569;SDS011;36525;49.398;7.614;2022-07-05T14:36:30;4.75;;;0.40;;
50569;SDS011;36525;49.398;7.614;2022-07-05T14:38:57;1.85;;;0.40;;
50569;SDS011;36525;49.398;7.614;2022-07-05T14:41:27;2.38;;;0.40;;
50569;SDS011;36525;49.398;7.614;2022-07-05T14:43:54;1.55;;;0.38;;
50569;SDS011;36525;49.398;7.614;2022-07-05T14:46:22;2.60;;;0.30;;
50569;SDS011;36525;49.398;7.614;2022-07-05T14:48:49;3.63;;;0.40;;
50569;SDS011;36525;49.398;7.614;2022-07-05T14:51:16;3.17;;;0.40;;
50569;SDS011;36525;49.398;7.614;2022-07-05T14:53:45;1.23;;;0.30;;
50569;SDS011;36525;49.398;7.614;2022-07-05T14:56:14;1.20;;;0.30;;
50569;SDS011;36525;49.398;7.614;2022-07-05T14:58:42;1.38;;;0.20;;
50569;SDS011;36525;49.398;7.614;2022-07-05T15:01:10;0.75;;;0.20;;
50569;SDS011;36525;49.398;7.614;2022-07-05T15:03:37;0.73;;;0.30;;
50569;SDS011;36525;49.398;7.614;2022-07-05T15:06:06;1.25;;;0.30;;
50569;SDS011;36525;49.398;7.614;2022-07-05T15:08:35;3.08;;;0.43;;
50569;SDS011;36525;49.398;7.614;2022-07-05T15:11:03;1.67;;;0.40;;
50569;SDS011;36525;49.398;7.614;2022-07-05T15:13:30;6.15;;;0.40;;
50569;SDS011;36525;49.398;7.614;2022-07-05T15:15:57;1.92;;;0.40;;
50569;SDS011;36525;49.398;7.614;2022-07-05T15:18:25;1.70;;;0.40;;
50569;SDS011;36525;49.398;7.614;2022-07-05T15:20:52;3.33;;;0.40;;
50569;SDS011;36525;49.398;7.614;2022-07-05T15:23:25;3.00;;;0.50;;
50569;SDS011;36525;49.398;7.614;2022-07-05T15:25:55;2.47;;;0.40;;
50569;SDS011;36525;49.398;7.614;2022-07-05T15:28:24;1.23;;;0.50;;
50569;SDS011;36525;49.398;7.614;2022-07-05T15:30:51;1.30;;;0.40;;
50569;SDS011;36525;49.398;7.614;2022-07-05T15:33:19;0.95;;;0.40;;